Time;durP1;ratioP1;P1;durP2;ratioP2;P2;SDS_P1;SDS_P2;PMS_P1;PMS_P2;Temp;Humidity;BMP_temperature;BMP_pressure;BME280_temperature;BME280_humidity;BME280_pressure;Samples;Min_cycle;Max_cycle;Signal;HPM_P1;HPM_P2
2022/05/13 00:01:59;;;;;;;;;;;;;;;;;;4993423;28;20100;-77
2022/05/13 00:04:25;;;;;;;;;;;;;;;;;;4971466;28;1088501;-78
2022/05/13 00:06:51;;;;;;;;;;;;;;;;;;4995022;28;20012;-77
2022/05/13 00:09:17;;;;;;;;;;;;;;;;;;5010236;28;19929;-78
2022/05/13 00:11:43;;;;;;;;;;;;;;;;;;5010229;28;19922;-78
2022/05/13 00:14:09;;;;;;;;;;;;;;;;;;5009242;28;19922;-77
2022/05/13 00:16:36;;;;;;;;;;;;;;;;;;5010120;28;19928;-78
2022/05/13 00:19:02;;;;;;;;;;;;;;;;;;4994514;28;20024;-77
2022/05/13 00:21:28;;;;;;;;;;;;;;;;;;4994370;28;20017;-78
2022/05/13 00:23:54;;;;;;;;;;;;;;;;;;5009395;28;19922;-77
2022/05/13 00:26:20;;;;;;;;;;;;;;;;;;4994131;28;19922;-77
2022/05/13 00:28:46;;;;;;;;;;;;;;;;;;4994461;28;19925;-77
2022/05/13 00:31:12;;;;;;;;;;;;;;;;;;5009081;28;19926;-77
2022/05/13 00:33:38;;;;;;;;;;;;;;;;;;4994596;28;19976;-77
2022/05/13 00:36:04;;;;;;;;;;;;;;;;;;4993994;28;19926;-77
2022/05/13 00:38:30;;;;;;;;;;;;;;;;;;4994177;28;20415;-77
2022/05/13 00:40:56;;;;;;;;;;;;;;;;;;5008322;28;19922;-77
2022/05/13 00:43:22;;;;;;;;;;;;;;;;;;4993926;28;19925;-77
2022/05/13 00:45:48;;;;;;;;;;;;;;;;;;4994243;28;19922;-78
2022/05/13 00:48:14;;;;;;;;;;;;;;;;;;5009123;28;20424;-77
2022/05/13 00:50:40;;;;;;;;;;;;;;;;;;4994429;28;20444;-77
2022/05/13 00:53:06;;;;;;;;;;;;;;;;;;5008609;28;20360;-77
2022/05/13 00:55:32;;;;;;;;;;;;;;;;;;4993489;28;20379;-78
2022/05/13 00:57:58;;;;;;;;;;;;;;;;;;4993398;28;19921;-77
2022/05/13 01:00:24;;;;;;;;;;;;;;;;;;5007561;28;20337;-77
2022/05/13 01:02:50;;;;;;;;;;;;;;;;;;5008948;28;19922;-77
2022/05/13 01:05:17;;;;;;;;;;;;;;;;;;5008935;28;20345;-77
2022/05/13 01:07:43;;;;;;;;;;;;;;;;;;4992242;28;19965;-78
2022/05/13 01:10:09;;;;;;;;;;;;;;;;;;4993322;28;19972;-77
2022/05/13 01:12:34;;;;;;;;;;;;;;;;;;4993473;28;19922;-78
2022/05/13 01:15:00;;;;;;;;;;;;;;;;;;4993329;28;19922;-77
2022/05/13 01:20:11;;;;;;;;;;;;;;;;;;4992679;28;20399;-77
2022/05/13 01:22:37;;;;;;;;;;;;;;;;;;4993546;28;20016;-78
2022/05/13 01:25:03;;;;;;;;;;;;;;;;;;4993553;28;20042;-78
2022/05/13 01:27:29;;;;;;;;;;;;;;;;;;4991850;28;19922;-78
2022/05/13 01:29:55;;;;;;;;;;;;;;;;;;4993322;28;19928;-77
2022/05/13 01:32:21;;;;;;;;;;;;;;;;;;5008079;28;19922;-77
2022/05/13 01:34:47;;;;;;;;;;;;;;;;;;4993405;28;19980;-77
2022/05/13 01:37:13;;;;;;;;;;;;;;;;;;5008501;28;19944;-77
2022/05/13 01:39:39;;;;;;;;;;;;;;;;;;4993117;28;19928;-77
2022/05/13 01:42:05;;;;;;;;;;;;;;;;;;5008445;28;19972;-79
2022/05/13 01:44:30;;;;;;;;;;;;;;;;;;4992664;28;20002;-77
2022/05/13 01:46:56;;;;;;;;;;;;;;;;;;4993230;28;19922;-78
2022/05/13 01:49:22;;;;;;;;;;;;;;;;;;5008157;28;19969;-77
2022/05/13 01:51:48;;;;;;;;;;;;;;;;;;4993240;28;19921;-78
2022/05/13 01:54:14;;;;;;;;;;;;;;;;;;4992448;28;19965;-77
2022/05/13 01:56:40;;;;;;;;;;;;;;;;;;4992674;28;19928;-77
2022/05/13 01:59:06;;;;;;;;;;;;;;;;;;4992714;28;19929;-78
2022/05/13 02:01:32;;;;;;;;;;;;;;;;;;5007717;28;19925;-78
2022/05/13 02:03:58;;;;;;;;;;;;;;;;;;5008513;28;19948;-77
2022/05/13 02:06:24;;;;;;;;;;;;;;;;;;5007599;28;20380;-78
2022/05/13 02:08:50;;;;;;;;;;;;;;;;;;4991590;28;20380;-78
2022/05/13 02:11:16;;;;;;;;;;;;;;;;;;5007535;28;19925;-77
2022/05/13 02:13:42;;;;;;;;;;;;;;;;;;4993120;28;19932;-77
2022/05/13 02:16:08;;;;;;;;;;;;;;;;;;4992794;28;19922;-77
2022/05/13 02:18:34;;;;;;;;;;;;;;;;;;5007993;28;19961;-78
2022/05/13 02:21:00;;;;;;;;;;;;;;;;;;5008035;28;19928;-78
2022/05/13 02:23:26;;;;;;;;;;;;;;;;;;4990872;28;19922;-77
2022/05/13 02:25:52;;;;;;;;;;;;;;;;;;5008341;28;19976;-77
2022/05/13 02:28:18;;;;;;;;;;;;;;;;;;4992633;28;20395;-76
2022/05/13 02:30:44;;;;;;;;;;;;;;;;;;4992716;28;20274;-77
2022/05/13 02:33:10;;;;;;;;;;;;;;;;;;4992885;28;20353;-78
2022/05/13 02:35:36;;;;;;;;;;;;;;;;;;4992761;28;19921;-78
2022/05/13 02:38:02;;;;;;;;;;;;;;;;;;5007717;28;19925;-78
2022/05/13 02:43:12;;;;;;;;;;;;;;;;;;4991259;28;20077;-77
2022/05/13 02:45:38;;;;;;;;;;;;;;;;;;4991983;28;19922;-78
2022/05/13 02:48:04;;;;;;;;;;;;;;;;;;5008150;28;19929;-77
2022/05/13 02:50:30;;;;;;;;;;;;;;;;;;4991652;28;19922;-77
2022/05/13 02:52:57;;;;;;;;;;;;;;;;;;4992919;28;19928;-78
2022/05/13 02:55:23;;;;;;;;;;;;;;;;;;4992288;28;19928;-78
2022/05/13 02:57:49;;;;;;;;;;;;;;;;;;5007891;28;19921;-78
2022/05/13 03:00:15;;;;;;;;;;;;;;;;;;4992078;28;19968;-78
2022/05/13 03:02:41;;;;;;;;;;;;;;;;;;5007945;28;19929;-79
2022/05/13 03:05:07;;;;;;;;;;;;;;;;;;5010174;28;19944;-78
2022/05/13 03:07:32;;;;;;;;;;;;;;;;;;5011313;28;20361;-78
2022/05/13 03:09:58;;;;;;;;;;;;;;;;;;4995886;28;19922;-77
2022/05/13 03:12:24;;;;;;;;;;;;;;;;;;5010839;28;19969;-77
2022/05/13 03:14:50;;;;;;;;;;;;;;;;;;4996235;28;19921;-78
2022/05/13 03:17:16;;;;;;;;;;;;;;;;;;4994556;28;19921;-77
2022/05/13 03:19:42;;;;;;;;;;;;;;;;;;5011261;28;19925;-77
2022/05/13 03:22:08;;;;;;;;;;;;;;;;;;4995604;28;19976;-77
2022/05/13 03:24:34;;;;;;;;;;;;;;;;;;4995847;28;19921;-77
2022/05/13 03:27:00;;;;;;;;;;;;;;;;;;4995810;28;19922;-78
2022/05/13 03:29:27;;;;;;;;;;;;;;;;;;5010865;28;19922;-77
2022/05/13 03:31:54;;;;;;;;;;;;;;;;;;5010927;28;19929;-77
2022/05/13 03:34:21;;;;;;;;;;;;;;;;;;5010871;28;19928;-78
2022/05/13 03:36:49;;;;;;;;;;;;;;;;;;4995262;28;20368;-77
2022/05/13 03:39:15;;;;;;;;;;;;;;;;;;4995242;28;19928;-77
2022/05/13 03:41:41;;;;;;;;;;;;;;;;;;4994754;28;19918;-78
2022/05/13 03:44:08;;;;;;;;;;;;;;;;;;5010897;28;19960;-77
2022/05/13 03:46:34;;;;;;;;;;;;;;;;;;4995058;28;19921;-77
2022/05/13 03:49:01;;;;;;;;;;;;;;;;;;5010386;28;19922;-78
2022/05/13 03:51:27;;;;;;;;;;;;;;;;;;5010099;28;19968;-77
2022/05/13 03:53:53;;;;;;;;;;;;;;;;;;4995472;28;20308;-77
2022/05/13 03:56:19;;;;;;;;;;;;;;;;;;4994635;28;19922;-77
2022/05/13 03:58:45;;;;;;;;;;;;;;;;;;4995051;28;20009;-77
2022/05/13 04:01:11;;;;;;;;;;;;;;;;;;4994729;28;20364;-77
2022/05/13 04:03:37;;;;;;;;;;;;;;;;;;5010580;28;20264;-78
2022/05/13 04:08:56;;;;;;;;;;;;;;;;;;4994521;28;19922;-78
2022/05/13 04:11:22;;;;;;;;;;;;;;;;;;4994903;28;20024;-77
2022/05/13 04:16:33;;;;;;;;;;;;;;;;;;4993692;28;19929;-78
2022/05/13 04:18:59;;;;;;;;;;;;;;;;;;4994359;28;19922;-78
2022/05/13 04:21:25;;;;;;;;;;;;;;;;;;4994309;28;19980;-77
2022/05/13 04:23:51;;;;;;;;;;;;;;;;;;4994982;28;20422;-77
2022/05/13 04:26:17;;;;;;;;;;;;;;;;;;5009727;28;19922;-77
2022/05/13 04:28:44;;;;;;;;;;;;;;;;;;4994079;28;19922;-77
2022/05/13 04:31:10;;;;;;;;;;;;;;;;;;5009150;28;19921;-77
2022/05/13 04:33:36;;;;;;;;;;;;;;;;;;5009289;28;19929;-78
2022/05/13 04:36:02;;;;;;;;;;;;;;;;;;5009742;28;19926;-78
2022/05/13 04:38:28;;;;;;;;;;;;;;;;;;4993940;28;19922;-78
2022/05/13 04:40:54;;;;;;;;;;;;;;;;;;4994190;28;19922;-77
2022/05/13 04:43:20;;;;;;;;;;;;;;;;;;5009567;28;19921;-77
2022/05/13 04:45:46;;;;;;;;;;;;;;;;;;5009581;28;19980;-77
2022/05/13 04:48:22;;;;;;;;;;;;;;;;;;4993525;28;20447;-77
2022/05/13 04:50:48;;;;;;;;;;;;;;;;;;5007302;28;19988;-77
2022/05/13 04:53:14;;;;;;;;;;;;;;;;;;4993980;28;19977;-77
2022/05/13 04:55:40;;;;;;;;;;;;;;;;;;5008802;28;19929;-77
2022/05/13 04:58:06;;;;;;;;;;;;;;;;;;5008664;28;20392;-77
2022/05/13 05:00:32;;;;;;;;;;;;;;;;;;5008548;28;19926;-80
2022/05/13 05:02:58;;;;;;;;;;;;;;;;;;4994043;28;19921;-84
2022/05/13 05:05:24;;;;;;;;;;;;;;;;;;5008078;28;20281;-84
2022/05/13 05:07:50;;;;;;;;;;;;;;;;;;5009314;28;19921;-82
2022/05/13 05:10:20;;;;;;;;;;;;;;;;;;5009431;28;20412;-81
2022/05/13 05:12:47;;;;;;;;;;;;;;;;;;5009523;28;19922;-82
2022/05/13 05:15:14;;;;;;;;;;;;;;;;;;5009767;28;19921;-82
2022/05/13 05:17:40;;;;;;;;;;;;;;;;;;5008517;28;19933;-77
2022/05/13 05:20:05;;;;;;;;;;;;;;;;;;5008260;28;20276;-76
2022/05/13 05:22:31;;;;;;;;;;;;;;;;;;4992243;28;19953;-77
2022/05/13 05:24:57;;;;;;;;;;;;;;;;;;5009018;28;20335;-77
2022/05/13 05:27:23;;;;;;;;;;;;;;;;;;5008289;28;20364;-77
2022/05/13 05:29:49;;;;;;;;;;;;;;;;;;4993464;28;19929;-78
2022/05/13 05:32:15;;;;;;;;;;;;;;;;;;4993279;28;19922;-79
2022/05/13 05:34:41;;;;;;;;;;;;;;;;;;4993520;28;19961;-80
2022/05/13 05:37:07;;;;;;;;;;;;;;;;;;5008852;28;19922;-81
2022/05/13 05:39:33;;;;;;;;;;;;;;;;;;4992869;28;20327;-82
2022/05/13 05:41:59;;;;;;;;;;;;;;;;;;4992276;28;19929;-79
2022/05/13 05:44:25;;;;;;;;;;;;;;;;;;4990439;28;19922;-79
2022/05/13 05:46:51;;;;;;;;;;;;;;;;;;4991072;28;19921;-80
2022/05/13 05:49:17;;;;;;;;;;;;;;;;;;5008163;28;19929;-78
2022/05/13 05:51:43;;;;;;;;;;;;;;;;;;4992983;28;20103;-78
2022/05/13 05:59:39;;;;;;;;;;;;;;;;;;4991019;28;20392;-77
2022/05/13 06:02:04;;;;;;;;;;;;;;;;;;5007017;28;19922;-82
2022/05/13 06:04:30;;;;;;;;;;;;;;;;;;5006893;28;20016;-77
2022/05/13 06:06:56;;;;;;;;;;;;;;;;;;5007656;28;20379;-76
2022/05/13 06:09:22;;;;;;;;;;;;;;;;;;4991055;28;19979;-78
2022/05/13 06:11:48;;;;;;;;;;;;;;;;;;5006596;28;19922;-77
2022/05/13 06:14:15;;;;;;;;;;;;;;;;;;5008831;28;19921;-77
2022/05/13 06:16:41;;;;;;;;;;;;;;;;;;5008521;28;19928;-75
2022/05/13 06:19:07;;;;;;;;;;;;;;;;;;4993068;28;19928;-75
2022/05/13 06:21:34;;;;;;;;;;;;;;;;;;4993019;28;20024;-75
2022/05/13 06:23:59;;;;;;;;;;;;;;;;;;4992946;28;19921;-75
2022/05/13 06:26:25;;;;;;;;;;;;;;;;;;4991969;28;19922;-75
2022/05/13 06:28:51;;;;;;;;;;;;;;;;;;4992229;28;19922;-75
2022/05/13 06:31:18;;;;;;;;;;;;;;;;;;4992718;28;20008;-75
2022/05/13 06:33:44;;;;;;;;;;;;;;;;;;4992650;28;19929;-75
2022/05/13 06:36:10;;;;;;;;;;;;;;;;;;4993015;28;19922;-77
2022/05/13 06:38:36;;;;;;;;;;;;;;;;;;5007789;28;20009;-77
2022/05/13 06:41:02;;;;;;;;;;;;;;;;;;5011715;28;19922;-76
2022/05/13 06:43:28;;;;;;;;;;;;;;;;;;5011760;28;19928;-73
2022/05/13 06:45:55;;;;;;;;;;;;;;;;;;4995641;28;20276;-73
2022/05/13 06:48:21;;;;;;;;;;;;;;;;;;4995597;28;19922;-74
2022/05/13 06:50:47;;;;;;;;;;;;;;;;;;4996017;28;19992;-77
2022/05/13 06:53:13;;;;;;;;;;;;;;;;;;5011393;28;19922;-74
2022/05/13 06:55:39;;;;;;;;;;;;;;;;;;4995657;28;19950;-74
2022/05/13 06:58:05;;;;;;;;;;;;;;;;;;4994043;28;19921;-76
2022/05/13 07:00:31;;;;;;;;;;;;;;;;;;5011664;28;19929;-77
2022/05/13 07:02:57;;;;;;;;;;;;;;;;;;5011615;28;19922;-76
2022/05/13 07:05:23;;;;;;;;;;;;;;;;;;5011453;28;19928;-76
2022/05/13 07:07:49;;;;;;;;;;;;;;;;;;4995276;28;20373;-76
2022/05/13 07:10:15;;;;;;;;;;;;;;;;;;4995777;28;20019;-76
2022/05/13 07:12:41;;;;;;;;;;;;;;;;;;5011007;28;19922;-76
2022/05/13 07:15:07;;;;;;;;;;;;;;;;;;4996132;28;20287;-76
2022/05/13 07:17:33;;;;;;;;;;;;;;;;;;4995903;28;19921;-78
2022/05/13 07:19:59;;;;;;;;;;;;;;;;;;4994725;28;19928;-75
2022/05/13 07:22:25;;;;;;;;;;;;;;;;;;4995905;28;19928;-74
2022/05/13 07:24:51;;;;;;;;;;;;;;;;;;4994877;28;20356;-75
2022/05/13 07:27:17;;;;;;;;;;;;;;;;;;5011635;28;19922;-75
2022/05/13 07:29:43;;;;;;;;;;;;;;;;;;5011165;28;19921;-75
2022/05/13 07:32:09;;;;;;;;;;;;;;;;;;5011055;28;20411;-75
2022/05/13 07:34:35;;;;;;;;;;;;;;;;;;4995524;28;19965;-77
2022/05/13 07:37:01;;;;;;;;;;;;;;;;;;5010649;28;20025;-75
2022/05/13 07:42:11;;;;;;;;;;;;;;;;;;4994269;28;19928;-75
2022/05/13 07:44:37;;;;;;;;;;;;;;;;;;4994657;28;19922;-77
2022/05/13 07:47:03;;;;;;;;;;;;;;;;;;5010772;28;19921;-76
2022/05/13 07:49:29;;;;;;;;;;;;;;;;;;4994892;28;19922;-77
2022/05/13 07:51:55;;;;;;;;;;;;;;;;;;4994603;28;20488;-76
2022/05/13 07:54:22;;;;;;;;;;;;;;;;;;4995143;28;20411;-78
2022/05/13 07:56:48;;;;;;;;;;;;;;;;;;5010632;28;19922;-76
2022/05/13 07:59:13;;;;;;;;;;;;;;;;;;5008911;28;19929;-75
2022/05/13 08:01:39;;;;;;;;;;;;;;;;;;4995007;28;19969;-77
2022/05/13 08:04:05;;;;;;;;;;;;;;;;;;5010333;28;19921;-77
2022/05/13 08:06:32;;;;;;;;;;;;;;;;;;5009790;28;19922;-77
2022/05/13 08:08:58;;;;;;;;;;;;;;;;;;5009848;28;19961;-75
2022/05/13 08:11:24;;;;;;;;;;;;;;;;;;5010231;28;19921;-76
2022/05/13 08:13:50;;;;;;;;;;;;;;;;;;5010155;28;19926;-77
2022/05/13 08:16:16;;;;;;;;;;;;;;;;;;5010136;28;19968;-77
2022/05/13 08:18:42;;;;;;;;;;;;;;;;;;4993261;28;19926;-77
2022/05/13 08:21:08;;;;;;;;;;;;;;;;;;4994195;28;19922;-77
2022/05/13 08:23:34;;;;;;;;;;;;;;;;;;5008519;28;19929;-78
2022/05/13 08:26:00;;;;;;;;;;;;;;;;;;5008268;28;20044;-77
2022/05/13 08:28:26;;;;;;;;;;;;;;;;;;5009917;28;19969;-77
2022/05/13 08:30:52;;;;;;;;;;;;;;;;;;4993915;28;19930;-78
2022/05/13 08:33:18;;;;;;;;;;;;;;;;;;5010601;28;19921;-77
2022/05/13 08:35:47;;;;;;;;;;;;;;;;;;5009744;28;19976;-79
2022/05/13 08:38:13;;;;;;;;;;;;;;;;;;5009810;28;19943;-77
2022/05/13 08:40:39;;;;;;;;;;;;;;;;;;5009878;28;19921;-79
2022/05/13 08:43:05;;;;;;;;;;;;;;;;;;5010325;28;19925;-77
2022/05/13 08:45:31;;;;;;;;;;;;;;;;;;5008371;28;19928;-77
2022/05/13 08:47:57;;;;;;;;;;;;;;;;;;5009518;28;19922;-80
2022/05/13 08:50:23;;;;;;;;;;;;;;;;;;5009380;28;20016;-75
2022/05/13 08:53:08;;;;;;;;;;;;;;;;;;4993058;28;20352;-76
2022/05/13 08:55:34;;;;;;;;;;;;;;;;;;5009573;28;19934;-77
2022/05/13 08:58:00;;;;;;;;;;;;;;;;;;4993490;28;20239;-76
2022/05/13 09:00:26;;;;;;;;;;;;;;;;;;5009557;28;19984;-77
2022/05/13 09:02:52;;;;;;;;;;;;;;;;;;5008126;28;19972;-76
2022/05/13 09:05:18;;;;;;;;;;;;;;;;;;5009393;28;19921;-76
2022/05/13 09:07:44;;;;;;;;;;;;;;;;;;4994068;28;19975;-77
2022/05/13 09:10:10;;;;;;;;;;;;;;;;;;4993557;28;19921;-75
2022/05/13 09:12:36;;;;;;;;;;;;;;;;;;4993063;28;19921;-75
2022/05/13 09:15:02;;;;;;;;;;;;;;;;;;5008692;28;19932;-77
2022/05/13 09:17:28;;;;;;;;;;;;;;;;;;5009209;28;20292;-77
2022/05/13 09:19:54;;;;;;;;;;;;;;;;;;4992822;28;19922;-77
2022/05/13 09:22:20;;;;;;;;;;;;;;;;;;4993549;28;19922;-76
2022/05/13 09:24:46;;;;;;;;;;;;;;;;;;5008205;28;20009;-77
2022/05/13 09:27:12;;;;;;;;;;;;;;;;;;4993989;28;19925;-77
2022/05/13 09:29:39;;;;;;;;;;;;;;;;;;5008910;28;19972;-78
2022/05/13 09:32:06;;;;;;;;;;;;;;;;;;4992667;28;19918;-76
2022/05/13 09:34:34;;;;;;;;;;;;;;;;;;4993947;28;19933;-77
2022/05/13 09:37:00;;;;;;;;;;;;;;;;;;4992656;28;19922;-77
2022/05/13 09:39:26;;;;;;;;;;;;;;;;;;5008487;28;19929;-77
2022/05/13 09:41:55;;;;;;;;;;;;;;;;;;5008386;28;19941;-77
2022/05/13 09:44:22;;;;;;;;;;;;;;;;;;4993804;28;19921;-78
2022/05/13 09:46:50;;;;;;;;;;;;;;;;;;4993456;28;20064;-78
2022/05/13 09:49:16;;;;;;;;;;;;;;;;;;4992635;28;19957;-77
2022/05/13 09:51:42;;;;;;;;;;;;;;;;;;5008521;28;19933;-77
2022/05/13 09:54:08;;;;;;;;;;;;;;;;;;5008434;28;19944;-76
2022/05/13 09:56:35;;;;;;;;;;;;;;;;;;4993447;28;20356;-78
2022/05/13 09:59:00;;;;;;;;;;;;;;;;;;5007899;28;20325;-78
2022/05/13 10:01:28;;;;;;;;;;;;;;;;;;4992820;28;19968;-78
2022/05/13 10:03:54;;;;;;;;;;;;;;;;;;4990672;28;19929;-78
2022/05/13 10:06:21;;;;;;;;;;;;;;;;;;4993301;28;19921;-77
2022/05/13 10:08:47;;;;;;;;;;;;;;;;;;4991759;28;19928;-78
2022/05/13 10:13:59;;;;;;;;;;;;;;;;;;4994073;28;20016;-77
2022/05/13 10:16:25;;;;;;;;;;;;;;;;;;4996734;28;19922;-76
2022/05/13 10:18:51;;;;;;;;;;;;;;;;;;4995928;28;19917;-76
2022/05/13 10:21:17;;;;;;;;;;;;;;;;;;4995650;28;20009;-76
2022/05/13 10:23:43;;;;;;;;;;;;;;;;;;5012269;28;20012;-76
2022/05/13 10:26:09;;;;;;;;;;;;;;;;;;4996571;28;19922;-77
2022/05/13 10:28:35;;;;;;;;;;;;;;;;;;4996728;28;19922;-76
2022/05/13 10:31:02;;;;;;;;;;;;;;;;;;5011371;28;19929;-76
2022/05/13 10:33:28;;;;;;;;;;;;;;;;;;4995587;28;19921;-76
2022/05/13 10:35:54;;;;;;;;;;;;;;;;;;5010865;28;19929;-77
2022/05/13 10:38:20;;;;;;;;;;;;;;;;;;4994978;28;19983;-76
2022/05/13 10:40:46;;;;;;;;;;;;;;;;;;5011498;28;19976;-75
2022/05/13 10:43:12;;;;;;;;;;;;;;;;;;4996320;28;19922;-77
2022/05/13 10:45:39;;;;;;;;;;;;;;;;;;5012262;28;19922;-76
2022/05/13 10:48:06;;;;;;;;;;;;;;;;;;4996558;28;20016;-76
2022/05/13 10:50:33;;;;;;;;;;;;;;;;;;5009445;28;20339;-78
2022/05/13 10:52:59;;;;;;;;;;;;;;;;;;5010451;28;19921;-77
2022/05/13 10:55:25;;;;;;;;;;;;;;;;;;4995571;28;20357;-75
2022/05/13 10:57:51;;;;;;;;;;;;;;;;;;5010413;28;19953;-75
2022/05/13 11:00:17;;;;;;;;;;;;;;;;;;4995701;28;19922;-75
2022/05/13 11:02:43;;;;;;;;;;;;;;;;;;4995447;28;20381;-75
2022/05/13 11:05:09;;;;;;;;;;;;;;;;;;4995030;28;19928;-75
2022/05/13 11:07:35;;;;;;;;;;;;;;;;;;4995850;28;19922;-75
2022/05/13 11:10:03;;;;;;;;;;;;;;;;;;4993431;28;19925;-74
2022/05/13 11:12:29;;;;;;;;;;;;;;;;;;4995474;28;19922;-74
2022/05/13 11:14:55;;;;;;;;;;;;;;;;;;4995068;28;19976;-74
2022/05/13 11:17:21;;;;;;;;;;;;;;;;;;4994642;28;19976;-72
2022/05/13 11:19:47;;;;;;;;;;;;;;;;;;5010251;28;19973;-73
2022/05/13 11:22:13;;;;;;;;;;;;;;;;;;4994956;28;20345;-74
2022/05/13 11:27:24;;;;;;;;;;;;;;;;;;4995579;28;19953;-74
2022/05/13 11:29:50;;;;;;;;;;;;;;;;;;4995000;28;19922;-75
2022/05/13 11:32:16;;;;;;;;;;;;;;;;;;4995572;28;19928;-73
2022/05/13 11:34:42;;;;;;;;;;;;;;;;;;4995003;28;19984;-73
2022/05/13 11:37:08;;;;;;;;;;;;;;;;;;4994996;28;20357;-73
2022/05/13 11:39:34;;;;;;;;;;;;;;;;;;5010319;28;20373;-76
2022/05/13 11:42:00;;;;;;;;;;;;;;;;;;4994151;28;20008;-73
2022/05/13 11:44:26;;;;;;;;;;;;;;;;;;4995182;28;20056;-76
2022/05/13 11:46:52;;;;;;;;;;;;;;;;;;4995714;28;20012;-75
2022/05/13 11:49:18;;;;;;;;;;;;;;;;;;5009906;28;19999;-74
2022/05/13 11:51:44;;;;;;;;;;;;;;;;;;4995258;28;19922;-75
2022/05/13 11:54:10;;;;;;;;;;;;;;;;;;4993940;28;20008;-75
2022/05/13 11:56:36;;;;;;;;;;;;;;;;;;4995485;28;20407;-73
2022/05/13 11:59:03;;;;;;;;;;;;;;;;;;4994809;28;20009;-75
2022/05/13 12:01:28;;;;;;;;;;;;;;;;;;4995365;28;20329;-73
2022/05/13 12:03:54;;;;;;;;;;;;;;;;;;4994541;28;19961;-72
2022/05/13 12:06:20;;;;;;;;;;;;;;;;;;4994588;28;19922;-74
2022/05/13 12:08:46;;;;;;;;;;;;;;;;;;4994975;28;19976;-75
2022/05/13 12:11:12;;;;;;;;;;;;;;;;;;5010367;28;19932;-75
2022/05/13 12:13:38;;;;;;;;;;;;;;;;;;4995464;28;19922;-75
2022/05/13 12:16:04;;;;;;;;;;;;;;;;;;4995003;28;19969;-75
2022/05/13 12:18:30;;;;;;;;;;;;;;;;;;4994920;28;19921;-75
2022/05/13 12:20:56;;;;;;;;;;;;;;;;;;4994955;28;19922;-75
2022/05/13 12:23:22;;;;;;;;;;;;;;;;;;4994900;28;19932;-75
2022/05/13 12:25:48;;;;;;;;;;;;;;;;;;5010574;28;19922;-75
2022/05/13 12:28:14;;;;;;;;;;;;;;;;;;4994446;28;19992;-75
2022/05/13 12:30:40;;;;;;;;;;;;;;;;;;4995020;28;19926;-75
2022/05/13 12:33:06;;;;;;;;;;;;;;;;;;5009729;28;20016;-75
2022/05/13 12:38:16;;;;;;;;;;;;;;;;;;4993239;28;20173;-74
2022/05/13 12:40:42;;;;;;;;;;;;;;;;;;4993871;28;20368;-75
2022/05/13 12:43:08;;;;;;;;;;;;;;;;;;4993460;28;19976;-75
2022/05/13 12:45:34;;;;;;;;;;;;;;;;;;4994564;28;19925;-75
2022/05/13 12:48:00;;;;;;;;;;;;;;;;;;4992431;28;19929;-79
2022/05/13 12:50:26;;;;;;;;;;;;;;;;;;4992715;28;19972;-76
2022/05/13 12:52:52;;;;;;;;;;;;;;;;;;4994048;28;20059;-75
2022/05/13 12:55:18;;;;;;;;;;;;;;;;;;4993577;28;20012;-77
2022/05/13 12:57:44;;;;;;;;;;;;;;;;;;4993759;28;20372;-76
2022/05/13 13:00:10;;;;;;;;;;;;;;;;;;5008573;28;19928;-75
2022/05/13 13:02:36;;;;;;;;;;;;;;;;;;4993537;28;19925;-76
2022/05/13 13:05:02;;;;;;;;;;;;;;;;;;5008232;28;19922;-76
2022/05/13 13:07:28;;;;;;;;;;;;;;;;;;4993846;28;19921;-75
2022/05/13 13:09:54;;;;;;;;;;;;;;;;;;5008832;28;19965;-75
2022/05/13 13:12:20;;;;;;;;;;;;;;;;;;4993266;28;20403;-75
2022/05/13 13:14:46;;;;;;;;;;;;;;;;;;4992967;28;19976;-75
2022/05/13 13:17:19;;;;;;;;;;;;;;;;;;4992774;28;19922;-75
2022/05/13 13:19:45;;;;;;;;;;;;;;;;;;4993641;28;19922;-75
2022/05/13 13:22:14;;;;;;;;;;;;;;;;;;4993522;28;20387;-75
2022/05/13 13:24:40;;;;;;;;;;;;;;;;;;4993466;28;19925;-75
2022/05/13 13:27:06;;;;;;;;;;;;;;;;;;4993438;28;20016;-76
2022/05/13 13:29:32;;;;;;;;;;;;;;;;;;4992274;28;19937;-76
2022/05/13 13:31:58;;;;;;;;;;;;;;;;;;4993625;28;19922;-75
2022/05/13 13:34:24;;;;;;;;;;;;;;;;;;4993188;28;19984;-75
2022/05/13 13:36:50;;;;;;;;;;;;;;;;;;5009005;28;20016;-75
2022/05/13 13:39:16;;;;;;;;;;;;;;;;;;4992638;28;19927;-75
2022/05/13 13:41:44;;;;;;;;;;;;;;;;;;4992702;28;19973;-75
2022/05/13 13:44:10;;;;;;;;;;;;;;;;;;5008118;28;20495;-75
2022/05/13 13:46:36;;;;;;;;;;;;;;;;;;4992844;28;20020;-75
2022/05/13 13:49:02;;;;;;;;;;;;;;;;;;4992194;28;19921;-75
2022/05/13 13:51:28;;;;;;;;;;;;;;;;;;4993303;28;19932;-75
2022/05/13 13:53:54;;;;;;;;;;;;;;;;;;4993206;28;20288;-75
2022/05/13 13:56:20;;;;;;;;;;;;;;;;;;4993151;28;19945;-75
2022/05/13 13:58:46;;;;;;;;;;;;;;;;;;4991907;28;19922;-75
2022/05/13 14:01:12;;;;;;;;;;;;;;;;;;4990698;28;19968;-73
2022/05/13 14:03:37;;;;;;;;;;;;;;;;;;4991611;28;19928;-73
2022/05/13 14:06:03;;;;;;;;;;;;;;;;;;4992920;28;20349;-73
2022/05/13 14:08:29;;;;;;;;;;;;;;;;;;4992555;28;20276;-73
2022/05/13 14:10:55;;;;;;;;;;;;;;;;;;4992628;28;19922;-73
2022/05/13 14:13:23;;;;;;;;;;;;;;;;;;4992492;28;19922;-71
2022/05/13 14:15:49;;;;;;;;;;;;;;;;;;4991693;28;19922;-71
2022/05/13 14:18:15;;;;;;;;;;;;;;;;;;4991601;28;20028;-72
2022/05/13 14:20:41;;;;;;;;;;;;;;;;;;4992082;28;19996;-73
2022/05/13 14:23:07;;;;;;;;;;;;;;;;;;4990874;28;19922;-73
2022/05/13 14:25:33;;;;;;;;;;;;;;;;;;4992825;28;19933;-73
2022/05/13 14:27:59;;;;;;;;;;;;;;;;;;5007989;28;20005;-73
2022/05/13 14:30:25;;;;;;;;;;;;;;;;;;4991515;28;19964;-73
2022/05/13 14:32:51;;;;;;;;;;;;;;;;;;5007261;28;19922;-73
2022/05/13 14:35:19;;;;;;;;;;;;;;;;;;5006687;28;19921;-73
2022/05/13 14:37:45;;;;;;;;;;;;;;;;;;4992277;28;19984;-74
2022/05/13 14:40:11;;;;;;;;;;;;;;;;;;4991484;28;19926;-74
2022/05/13 14:42:38;;;;;;;;;;;;;;;;;;4991931;28;19980;-75
2022/05/13 14:45:05;;;;;;;;;;;;;;;;;;4991145;28;20016;-74
2022/05/13 14:47:31;;;;;;;;;;;;;;;;;;4991476;28;19922;-74
2022/05/13 14:49:57;;;;;;;;;;;;;;;;;;4991405;28;19922;-72
2022/05/13 14:52:23;;;;;;;;;;;;;;;;;;4991596;28;19926;-73
2022/05/13 14:54:48;;;;;;;;;;;;;;;;;;4991639;28;20020;-75
2022/05/13 14:57:14;;;;;;;;;;;;;;;;;;4991572;28;19922;-75
2022/05/13 14:59:40;;;;;;;;;;;;;;;;;;4991669;28;19922;-75
2022/05/13 15:02:06;;;;;;;;;;;;;;;;;;5011020;28;19922;-75
2022/05/13 15:04:32;;;;;;;;;;;;;;;;;;4995436;28;20018;-75
2022/05/13 15:06:58;;;;;;;;;;;;;;;;;;4993575;28;19918;-74
2022/05/13 15:09:28;;;;;;;;;;;;;;;;;;4995648;28;19933;-74
2022/05/13 15:11:55;;;;;;;;;;;;;;;;;;4994752;28;19921;-74
2022/05/13 15:14:21;;;;;;;;;;;;;;;;;;4994820;28;19928;-74
2022/05/13 15:16:47;;;;;;;;;;;;;;;;;;5011210;28;20008;-74
2022/05/13 15:19:24;;;;;;;;;;;;;;;;;;5008886;28;19922;-74
2022/05/13 15:21:50;;;;;;;;;;;;;;;;;;4993677;28;19973;-74
2022/05/13 15:24:16;;;;;;;;;;;;;;;;;;4993755;28;19974;-73
2022/05/13 15:26:42;;;;;;;;;;;;;;;;;;4994301;28;19979;-74
2022/05/13 15:29:08;;;;;;;;;;;;;;;;;;4995032;28;20184;-74
2022/05/13 15:31:34;;;;;;;;;;;;;;;;;;4994520;28;20373;-74
2022/05/13 15:34:00;;;;;;;;;;;;;;;;;;4994856;28;19922;-76
2022/05/13 15:36:26;;;;;;;;;;;;;;;;;;4993838;28;19921;-75
2022/05/13 15:38:52;;;;;;;;;;;;;;;;;;5009795;28;19944;-76
2022/05/13 15:41:18;;;;;;;;;;;;;;;;;;4989670;28;19928;-74
2022/05/13 15:43:45;;;;;;;;;;;;;;;;;;4994104;28;19961;-75
2022/05/13 15:46:11;;;;;;;;;;;;;;;;;;4993146;28;19918;-74
2022/05/13 15:48:37;;;;;;;;;;;;;;;;;;4994290;28;19922;-75
2022/05/13 15:53:47;;;;;;;;;;;;;;;;;;4994536;28;20369;-73
2022/05/13 15:56:13;;;;;;;;;;;;;;;;;;4994392;28;20005;-73
2022/05/13 15:58:40;;;;;;;;;;;;;;;;;;4994354;28;19922;-73
2022/05/13 16:01:06;;;;;;;;;;;;;;;;;;4994148;28;19928;-75
2022/05/13 16:03:32;;;;;;;;;;;;;;;;;;4994301;28;19921;-76
2022/05/13 16:05:58;;;;;;;;;;;;;;;;;;4994394;28;19921;-74
2022/05/13 16:08:30;;;;;;;;;;;;;;;;;;4994296;28;20353;-74
2022/05/13 16:10:56;;;;;;;;;;;;;;;;;;4994560;28;19933;-74
2022/05/13 16:13:22;;;;;;;;;;;;;;;;;;4994114;28;20277;-74
2022/05/13 16:15:48;;;;;;;;;;;;;;;;;;4994375;28;19925;-74
2022/05/13 16:18:14;;;;;;;;;;;;;;;;;;4993982;28;20456;-74
2022/05/13 16:20:40;;;;;;;;;;;;;;;;;;4992785;28;19972;-74
2022/05/13 16:23:06;;;;;;;;;;;;;;;;;;5007780;28;20170;-73
2022/05/13 16:25:32;;;;;;;;;;;;;;;;;;4993193;28;20016;-73
2022/05/13 16:27:59;;;;;;;;;;;;;;;;;;4993719;28;19930;-73
2022/05/13 16:30:25;;;;;;;;;;;;;;;;;;4993800;28;19921;-73
2022/05/13 16:32:50;;;;;;;;;;;;;;;;;;4993527;28;19929;-72
2022/05/13 16:35:16;;;;;;;;;;;;;;;;;;4993799;28;19921;-71
2022/05/13 16:37:42;;;;;;;;;;;;;;;;;;5009366;28;20025;-71
2022/05/13 16:40:08;;;;;;;;;;;;;;;;;;4994374;28;19928;-71
2022/05/13 16:42:34;;;;;;;;;;;;;;;;;;4992190;28;19928;-73
2022/05/13 16:45:00;;;;;;;;;;;;;;;;;;4993592;28;19929;-71
2022/05/13 16:47:26;;;;;;;;;;;;;;;;;;4993646;28;20353;-77
2022/05/13 16:49:52;;;;;;;;;;;;;;;;;;5008381;28;19932;-78
2022/05/13 16:52:18;;;;;;;;;;;;;;;;;;4992304;28;19921;-76
2022/05/13 16:54:44;;;;;;;;;;;;;;;;;;5008882;28;19922;-78
2022/05/13 16:57:10;;;;;;;;;;;;;;;;;;4990790;28;19922;-76
2022/05/13 16:59:37;;;;;;;;;;;;;;;;;;4992776;28;19921;-78
2022/05/13 17:02:03;;;;;;;;;;;;;;;;;;5008216;28;20012;-77
2022/05/13 17:04:29;;;;;;;;;;;;;;;;;;5007358;28;20005;-76
2022/05/13 17:06:55;;;;;;;;;;;;;;;;;;5007124;28;19925;-77
2022/05/13 17:17:35;;;;;;;;;;;;;;;;;;4991132;28;20335;-79